createdAt,value
2023-05-25T00:00:26.717Z,102645.69
2023-05-25T00:02:56.623Z,102645.63
2023-05-25T00:05:27.870Z,102649.94
2023-05-25T00:07:57.322Z,102649.88
2023-05-25T00:10:27.404Z,102642.69
2023-05-25T00:12:58.024Z,102646.97
2023-05-25T00:15:28.249Z,102635.44
2023-05-25T00:17:58.041Z,102637.06
2023-05-25T00:20:27.466Z,102642.22
2023-05-25T00:22:56.575Z,102643.00
2023-05-25T00:25:26.164Z,102633.28
2023-05-25T00:27:57.232Z,102633.16
2023-05-25T00:30:28.878Z,102633.09
2023-05-25T00:32:58.140Z,102635.63
2023-05-25T00:35:29.178Z,102640.75
2023-05-25T00:38:01.308Z,102637.19
2023-05-25T00:40:32.266Z,102634.53
2023-05-25T00:43:04.834Z,102642.34
2023-05-25T00:45:38.437Z,102630.91
2023-05-25T00:48:09.597Z,102629.03
2023-05-25T00:50:42.651Z,102632.44
2023-05-25T00:53:14.486Z,102636.75
2023-05-25T00:55:50.596Z,102632.28
2023-05-25T00:58:24.306Z,102633.91
2023-05-25T01:00:56.368Z,102635.66
2023-05-25T01:03:30.860Z,102632.94
2023-05-25T01:06:02.356Z,102633.75
2023-05-25T01:08:40.748Z,102631.97
2023-05-25T01:12:23.798Z,102631.75
2023-05-25T01:14:55.512Z,102633.38
2023-05-25T01:17:24.093Z,102630.72
2023-05-25T01:20:08.850Z,102632.44
2023-05-25T01:22:46.656Z,102638.47
2023-05-25T01:25:22.859Z,102642.78
2023-05-25T01:27:59.579Z,102639.19
2023-05-25T01:30:29.263Z,102645.25
2023-05-25T01:32:58.589Z,102646.94
2023-05-25T01:35:28.560Z,102646.03
2023-05-25T01:38:00.644Z,102649.47
2023-05-25T01:40:29.318Z,102641.50
2023-05-25T01:42:57.798Z,102646.75
2023-05-25T01:45:26.975Z,102648.41
2023-05-25T01:48:07.033Z,102650.91
2023-05-25T01:50:46.721Z,102642.09
2023-05-25T01:53:21.832Z,102649.88
2023-05-25T01:55:57.497Z,102655.00
2023-05-25T01:58:28.023Z,102661.97
2023-05-25T02:00:57.763Z,102664.53
2023-05-25T02:03:26.658Z,102658.41
2023-05-25T02:05:57.917Z,102664.44
2023-05-25T02:08:27.962Z,102670.41
2023-05-25T02:10:56.423Z,102666.94
2023-05-25T02:13:24.894Z,102671.28
2023-05-25T02:15:54.460Z,102664.28
2023-05-25T02:18:23.779Z,102664.22
2023-05-25T02:20:52.399Z,102661.59
2023-05-25T02:23:21.154Z,102670.25
2023-05-25T02:25:51.885Z,102663.25
2023-05-25T02:28:22.795Z,102662.31
2023-05-25T02:30:51.478Z,102659.59
2023-05-25T02:33:20.396Z,102656.91
2023-05-25T02:35:50.101Z,102659.44
2023-05-25T02:38:18.581Z,102654.91
2023-05-25T02:40:47.724Z,102654.84
2023-05-25T02:43:17.620Z,102661.75
2023-05-25T02:45:46.314Z,102658.25
2023-05-25T02:48:14.727Z,102657.38
2023-05-25T02:50:44.463Z,102661.72
2023-05-25T02:53:12.921Z,102659.03
2023-05-25T02:55:43.511Z,102658.09
2023-05-25T02:58:12.461Z,102661.56
2023-05-25T03:00:43.004Z,102658.03
2023-05-25T03:03:11.711Z,102668.56
2023-05-25T03:05:40.264Z,102673.78
2023-05-25T03:08:09.384Z,102676.41
2023-05-25T03:10:38.426Z,102675.44
2023-05-25T03:13:07.420Z,102678.06
2023-05-25T03:15:36.194Z,102678.13
2023-05-25T03:18:07.145Z,102678.16
2023-05-25T03:20:36.391Z,102677.28
2023-05-25T03:23:05.187Z,102676.41
2023-05-25T03:25:33.532Z,102690.31
2023-05-25T03:28:02.125Z,102688.53
2023-05-25T03:30:31.470Z,102698.09
2023-05-25T03:33:00.141Z,102688.44
2023-05-25T03:35:29.985Z,102699.00
2023-05-25T03:37:58.444Z,102698.09
2023-05-25T03:40:27.103Z,102698.19
2023-05-25T03:42:55.688Z,102701.72
2023-05-25T03:45:24.108Z,102706.13
2023-05-25T03:47:53.225Z,102706.13
2023-05-25T03:50:21.838Z,102698.38
2023-05-25T03:52:52.687Z,102715.09
2023-05-25T03:55:21.344Z,102714.25
2023-05-25T03:57:49.818Z,102713.59
2023-05-25T04:00:18.785Z,102713.84
2023-05-25T04:02:47.382Z,102711.47
2023-05-25T04:09:23.874Z,102714.69
2023-05-25T04:11:52.594Z,102717.63
2023-05-25T04:14:21.785Z,102725.72
2023-05-25T04:16:50.609Z,102721.59
2023-05-25T04:19:19.285Z,102720.06
2023-05-25T04:22:01.026Z,102721.28
2023-05-25T04:24:32.606Z,102712.78
2023-05-25T04:27:02.356Z,102721.81
2023-05-25T04:29:32.148Z,102722.88
2023-05-25T04:32:01.015Z,102713.44
2023-05-25T04:34:30.177Z,102720.72
2023-05-25T04:36:58.848Z,102720.91
2023-05-25T04:39:27.567Z,102722.88
2023-05-25T04:41:57.672Z,102718.72
2023-05-25T04:44:29.960Z,102712.88
2023-05-25T04:46:59.622Z,102720.09
2023-05-25T04:49:28.166Z,102705.50
2023-05-25T04:51:56.598Z,102717.13
2023-05-25T04:54:25.545Z,102715.59
2023-05-25T04:56:54.294Z,102720.25
2023-05-25T04:59:24.199Z,102716.16
2023-05-25T05:01:52.903Z,102712.88
2023-05-25T05:04:21.527Z,102720.16
2023-05-25T05:06:50.100Z,102715.16
2023-05-25T05:09:18.701Z,102718.91
2023-05-25T05:11:47.124Z,102725.28
2023-05-25T05:14:15.697Z,102720.31
2023-05-25T05:16:45.481Z,102730.16
2023-05-25T05:19:14.358Z,102726.06
2023-05-25T05:21:43.016Z,102729.00
2023-05-25T05:24:11.767Z,102727.53
2023-05-25T05:26:56.171Z,102734.84
2023-05-25T05:29:26.999Z,102732.56
2023-05-25T05:31:57.628Z,102733.81
2023-05-25T05:34:26.136Z,102737.72
2023-05-25T05:36:58.491Z,102747.03
2023-05-25T05:39:28.288Z,102747.50
2023-05-25T05:41:57.191Z,102756.63
2023-05-25T05:44:29.002Z,102763.16
2023-05-25T05:47:01.887Z,102757.38
2023-05-25T05:49:31.309Z,102762.13
2023-05-25T05:52:00.477Z,102763.34
2023-05-25T05:54:29.185Z,102767.97
2023-05-25T05:56:57.843Z,102771.81
2023-05-25T05:59:26.859Z,102772.00
2023-05-25T06:01:56.176Z,102773.03
2023-05-25T06:04:29.004Z,102781.00
2023-05-25T06:06:58.639Z,102785.63
2023-05-25T06:09:27.567Z,102787.66
2023-05-25T06:11:56.163Z,102788.78
2023-05-25T06:14:26.776Z,102794.13
2023-05-25T06:16:56.948Z,102795.91
2023-05-25T06:19:26.896Z,102791.56
2023-05-25T06:21:55.364Z,102793.34
2023-05-25T06:24:23.956Z,102788.94
2023-05-25T06:26:52.514Z,102809.13
2023-05-25T06:29:21.022Z,102802.06
2023-05-25T06:31:49.532Z,102803.03
2023-05-25T06:34:18.003Z,102806.00
2023-05-25T06:36:48.178Z,102816.84
2023-05-25T06:39:16.704Z,102817.06
2023-05-25T06:41:45.344Z,102812.16
2023-05-25T06:44:13.908Z,102812.41
2023-05-25T06:46:42.492Z,102814.34
2023-05-25T06:49:11.481Z,102812.72
2023-05-25T06:51:40.000Z,102817.25
2023-05-25T06:54:09.925Z,102815.66
2023-05-25T06:56:38.369Z,102823.72
2023-05-25T07:01:36.762Z,102826.34
2023-05-25T07:04:05.334Z,102824.59
2023-05-25T07:06:34.105Z,102836.03
2023-05-25T07:09:02.467Z,102828.94
2023-05-25T07:11:32.410Z,102835.94
2023-05-25T07:14:00.962Z,102832.34
2023-05-25T07:16:29.692Z,102832.34
2023-05-25T07:19:00.052Z,102841.16
2023-05-25T07:21:32.482Z,102841.09
2023-05-25T07:24:01.793Z,102851.59
2023-05-25T07:26:32.202Z,102854.22
2023-05-25T07:29:01.621Z,102857.75
2023-05-25T07:31:30.799Z,102855.00
2023-05-25T07:33:59.639Z,102868.09
2023-05-25T07:36:28.227Z,102870.63
2023-05-25T07:38:56.747Z,102870.59
2023-05-25T07:41:25.417Z,102873.13
2023-05-25T07:43:55.252Z,102867.81
2023-05-25T07:46:25.436Z,102869.69
2023-05-25T07:48:54.721Z,102879.56
2023-05-25T07:51:26.586Z,102872.47
2023-05-25T07:53:55.418Z,102877.66
2023-05-25T07:56:24.128Z,102870.53
2023-05-25T07:58:52.594Z,102874.97
2023-05-25T08:01:24.893Z,102880.25
2023-05-25T08:03:54.912Z,102884.59
2023-05-25T08:06:23.795Z,102887.28
2023-05-25T08:08:52.387Z,102892.59
2023-05-25T08:11:25.308Z,102896.88
2023-05-25T08:13:53.900Z,102901.38
2023-05-25T08:16:24.086Z,102899.91
2023-05-25T08:18:52.640Z,102892.25
2023-05-25T08:21:21.436Z,102898.63
2023-05-25T08:23:50.798Z,102894.34
2023-05-25T08:26:37.862Z,102899.81
2023-05-25T08:29:08.295Z,102894.69
2023-05-25T08:31:38.302Z,102913.41
2023-05-25T08:34:06.924Z,102900.22
2023-05-25T08:36:36.277Z,102908.31
2023-05-25T08:39:05.861Z,102900.38
2023-05-25T08:41:36.046Z,102903.88
2023-05-25T08:44:08.112Z,102896.78
2023-05-25T08:46:38.751Z,102905.66
2023-05-25T08:49:11.690Z,102906.53
2023-05-25T08:51:44.334Z,102916.22
2023-05-25T08:54:15.229Z,102912.69
2023-05-25T08:56:51.330Z,102918.97
2023-05-25T08:59:32.858Z,102916.28
2023-05-25T09:02:21.567Z,102907.41
2023-05-25T09:04:50.272Z,102916.28
2023-05-25T09:07:19.204Z,102918.06
2023-05-25T09:09:50.011Z,102912.72
2023-05-25T09:12:19.920Z,102921.59
2023-05-25T09:14:48.590Z,102910.03
2023-05-25T09:17:20.115Z,102923.28
2023-05-25T09:19:48.791Z,102923.28
2023-05-25T09:22:17.984Z,102930.41
2023-05-25T09:24:47.116Z,102925.91
2023-05-25T09:27:19.676Z,102928.63
2023-05-25T09:29:50.100Z,102931.31
2023-05-25T09:32:21.005Z,102926.03
2023-05-25T09:34:49.583Z,102934.84
2023-05-25T09:37:20.089Z,102933.91
2023-05-25T09:39:49.298Z,102928.44
2023-05-25T09:42:18.302Z,102926.50
2023-05-25T09:44:46.834Z,102921.06
2023-05-25T09:47:17.094Z,102925.50
2023-05-25T09:49:49.513Z,102940.66
2023-05-25T09:52:18.414Z,102937.22
2023-05-25T09:54:47.904Z,102951.34
2023-05-25T09:57:17.353Z,102949.50
2023-05-25T09:59:46.363Z,102954.91
2023-05-25T10:02:15.784Z,102944.22
2023-05-25T10:04:44.638Z,102960.94
2023-05-25T10:07:16.277Z,102956.59
2023-05-25T10:09:47.937Z,102956.72
2023-05-25T10:12:20.975Z,102953.28
2023-05-25T10:14:54.263Z,102960.41
2023-05-25T10:17:25.810Z,102956.94
2023-05-25T10:19:59.440Z,102963.16
2023-05-25T10:22:36.046Z,102964.06
2023-05-25T10:25:12.308Z,102966.75
2023-05-25T10:27:43.158Z,102959.63
2023-05-25T10:30:13.129Z,102964.84
2023-05-25T10:32:44.241Z,102966.56
2023-05-25T10:35:13.817Z,102954.22
2023-05-25T10:37:45.503Z,102960.50
2023-05-25T10:40:15.401Z,102958.72
2023-05-25T10:42:44.391Z,102965.69
2023-05-25T10:45:13.725Z,102962.94
2023-05-25T10:47:43.313Z,102957.44
2023-05-25T10:50:22.952Z,102953.59
2023-05-25T10:53:03.872Z,102959.38
2023-05-25T10:55:44.203Z,102959.91
2023-05-25T10:58:15.052Z,102963.63
2023-05-25T11:00:44.899Z,102954.34
2023-05-25T11:03:13.476Z,102960.88
2023-05-25T11:05:42.207Z,102957.47
2023-05-25T11:08:13.224Z,102959.16
2023-05-25T11:11:00.292Z,102965.50
2023-05-25T11:13:39.771Z,102962.03
2023-05-25T11:16:14.891Z,102956.69
2023-05-25T11:18:44.151Z,102956.59
2023-05-25T11:21:18.753Z,102958.06
2023-05-25T11:24:00.279Z,102952.50
2023-05-25T11:26:31.843Z,102953.31
2023-05-25T11:29:02.341Z,102948.69
2023-05-25T11:31:37.543Z,102965.56
2023-05-25T11:34:09.490Z,102957.53
2023-05-25T11:36:39.402Z,102958.94
2023-05-25T11:39:17.521Z,102965.41
2023-05-25T11:41:54.732Z,102962.28
2023-05-25T11:44:31.278Z,102959.13
2023-05-25T11:47:06.066Z,102951.13
2023-05-25T11:49:34.569Z,102957.56
2023-05-25T11:52:08.326Z,102950.09
2023-05-25T11:54:41.154Z,102948.91
2023-05-25T11:57:18.052Z,102940.13
2023-05-25T11:59:51.126Z,102949.03
2023-05-25T12:02:21.336Z,102934.19
2023-05-25T12:04:58.578Z,102940.19
2023-05-25T12:07:29.124Z,102929.53
2023-05-25T12:10:08.766Z,102940.69
2023-05-25T12:12:42.943Z,102934.03
2023-05-25T12:15:13.321Z,102929.66
2023-05-25T12:17:44.871Z,102939.41
2023-05-25T12:20:16.106Z,102940.25
2023-05-25T12:22:46.284Z,102933.09
2023-05-25T12:25:20.993Z,102934.84
2023-05-25T12:27:49.471Z,102933.56
2023-05-25T12:30:18.010Z,102939.91
2023-05-25T12:32:55.645Z,102947.63
2023-05-25T12:35:24.504Z,102939.84
2023-05-25T12:38:10.848Z,102941.69
2023-05-25T12:40:42.123Z,102932.34
2023-05-25T12:43:13.959Z,102930.31
2023-05-25T12:45:43.975Z,102936.06
2023-05-25T12:48:13.127Z,102935.84
2023-05-25T12:50:58.626Z,102926.22
2023-05-25T12:53:29.066Z,102917.91
2023-05-25T12:56:06.635Z,102924.75
2023-05-25T12:58:35.127Z,102919.91
2023-05-25T13:01:03.609Z,102919.06
2023-05-25T13:03:32.263Z,102913.31
2023-05-25T13:06:04.845Z,102913.41
2023-05-25T13:08:33.285Z,102911.09
2023-05-25T13:11:03.756Z,102924.97
2023-05-25T13:13:33.751Z,102925.03
2023-05-25T13:16:02.257Z,102934.41
2023-05-25T13:18:30.752Z,102917.03
2023-05-25T13:20:59.766Z,102926.22
2023-05-25T13:23:28.681Z,102924.25
2023-05-25T13:25:57.264Z,102927.25
2023-05-25T13:28:26.053Z,102917.53
2023-05-25T13:30:55.788Z,102919.38
2023-05-25T13:33:24.400Z,102935.56
2023-05-25T13:35:59.573Z,102926.28
2023-05-25T13:38:29.674Z,102922.97
2023-05-25T13:40:58.416Z,102920.03
2023-05-25T13:43:27.229Z,102918.56
2023-05-25T13:45:59.102Z,102921.00
2023-05-25T13:48:28.300Z,102920.41
2023-05-25T13:50:57.150Z,102925.78
2023-05-25T13:53:25.674Z,102913.88
2023-05-25T13:55:54.409Z,102922.34
2023-05-25T13:58:24.655Z,102911.63
2023-05-25T14:00:53.497Z,102912.22
2023-05-25T14:03:23.645Z,102907.31
2023-05-25T14:05:53.866Z,102917.81
2023-05-25T14:08:22.570Z,102906.00
2023-05-25T14:10:51.145Z,102915.72
2023-05-25T14:13:19.871Z,102912.31
2023-05-25T14:15:48.438Z,102912.34
2023-05-25T14:18:17.217Z,102905.25
2023-05-25T14:20:47.341Z,102904.47
2023-05-25T14:23:18.456Z,102905.31
2023-05-25T14:25:48.834Z,102902.03
2023-05-25T14:28:17.496Z,102915.22
2023-05-25T14:30:45.976Z,102912.19
2023-05-25T14:33:15.841Z,102910.81
2023-05-25T14:35:44.712Z,102908.22
2023-05-25T14:38:14.744Z,102902.25
2023-05-25T14:40:43.229Z,102898.47
2023-05-25T14:43:11.822Z,102916.00
2023-05-25T14:45:40.411Z,102897.84
2023-05-25T14:50:44.481Z,102911.66
2023-05-25T14:53:14.815Z,102913.66
2023-05-25T14:55:43.747Z,102908.78
2023-05-25T14:58:12.416Z,102916.63
2023-05-25T15:00:40.904Z,102901.91
2023-05-25T15:03:09.509Z,102904.56
2023-05-25T15:05:38.047Z,102911.56
2023-05-25T15:08:06.774Z,102916.63
2023-05-25T15:10:36.960Z,102912.53
2023-05-25T15:13:05.494Z,102911.66
2023-05-25T15:15:34.033Z,102918.44
2023-05-25T15:18:02.574Z,102919.09
2023-05-25T15:20:31.308Z,102917.41
2023-05-25T15:22:59.898Z,102915.00
2023-05-25T15:28:01.697Z,102911.28
2023-05-25T15:30:30.358Z,102924.28
2023-05-25T15:32:58.951Z,102917.72
2023-05-25T15:35:31.570Z,102919.91
2023-05-25T15:38:00.455Z,102912.63
2023-05-25T15:40:29.363Z,102915.00
2023-05-25T15:42:57.846Z,102914.00
2023-05-25T15:45:27.714Z,102916.91
2023-05-25T15:47:56.339Z,102922.63
2023-05-25T15:50:24.870Z,102909.00
2023-05-25T15:52:53.201Z,102913.88
2023-05-25T15:55:22.059Z,102919.13
2023-05-25T15:57:50.569Z,102923.50
2023-05-25T16:00:19.890Z,102921.88
2023-05-25T16:02:49.919Z,102922.91
2023-05-25T16:05:18.901Z,102923.81
2023-05-25T16:07:47.449Z,102913.97
2023-05-25T16:10:15.966Z,102922.41
2023-05-25T16:12:46.340Z,102926.59
2023-05-25T16:15:15.347Z,102926.19
2023-05-25T16:17:44.070Z,102922.09
2023-05-25T16:20:14.549Z,102919.84
2023-05-25T16:22:43.316Z,102933.03
2023-05-25T16:25:12.287Z,102915.97
2023-05-25T16:27:40.984Z,102921.63
2023-05-25T16:30:12.536Z,102914.38
2023-05-25T16:32:42.129Z,102929.28
2023-05-25T16:35:11.116Z,102921.47
2023-05-25T16:37:41.358Z,102928.47
2023-05-25T16:40:11.349Z,102926.41
2023-05-25T16:42:39.902Z,102918.53
2023-05-25T16:45:09.944Z,102915.38
2023-05-25T16:47:38.614Z,102915.59
2023-05-25T16:50:09.237Z,102919.06
2023-05-25T16:52:38.138Z,102923.44
2023-05-25T16:55:09.378Z,102920.81
2023-05-25T16:57:37.755Z,102927.41
2023-05-25T17:00:08.285Z,102914.41
2023-05-25T17:02:36.978Z,102914.53
2023-05-25T17:05:06.836Z,102912.78
2023-05-25T17:07:35.939Z,102910.34
2023-05-25T17:10:04.596Z,102912.25
2023-05-25T17:12:34.410Z,102906.56
2023-05-25T17:15:02.976Z,102917.25
2023-05-25T17:17:31.589Z,102904.59
2023-05-25T17:20:00.472Z,102909.09
2023-05-25T17:22:29.011Z,102910.94
2023-05-25T17:24:57.467Z,102918.81
2023-05-25T17:27:26.084Z,102918.91
2023-05-25T17:29:55.988Z,102904.13
2023-05-25T17:32:24.637Z,102910.81
2023-05-25T17:34:53.175Z,102915.47
2023-05-25T17:37:21.645Z,102914.31
2023-05-25T17:39:50.141Z,102924.91
2023-05-25T17:42:18.802Z,102937.38
2023-05-25T17:44:47.266Z,102929.81
2023-05-25T17:47:17.803Z,102923.38
2023-05-25T17:49:46.290Z,102930.25
2023-05-25T17:52:14.901Z,102928.13
2023-05-25T17:54:43.458Z,102934.84
2023-05-25T17:57:14.087Z,102934.28
2023-05-25T17:59:44.825Z,102933.75
2023-05-25T18:02:14.692Z,102934.78
2023-05-25T18:04:44.936Z,102945.09
2023-05-25T18:07:13.478Z,102934.38
2023-05-25T18:09:44.661Z,102936.72
2023-05-25T18:12:13.297Z,102938.78
2023-05-25T18:14:44.753Z,102930.25
2023-05-25T18:17:13.504Z,102927.84
2023-05-25T18:19:43.580Z,102937.97
2023-05-25T18:22:12.141Z,102936.63
2023-05-25T18:24:41.275Z,102938.13
2023-05-25T18:27:09.746Z,102940.66
2023-05-25T18:29:38.203Z,102940.13
2023-05-25T18:32:07.289Z,102936.69
2023-05-25T18:34:35.707Z,102934.78
2023-05-25T18:37:05.795Z,102936.22
2023-05-25T18:39:34.549Z,102934.59
2023-05-25T18:42:03.150Z,102933.69
2023-05-25T18:44:31.567Z,102936.38
2023-05-25T18:47:00.164Z,102941.00
2023-05-25T18:49:32.810Z,102941.09
2023-05-25T18:52:01.507Z,102940.19
2023-05-25T18:54:31.643Z,102940.91
2023-05-25T18:57:01.820Z,102933.66
2023-05-25T18:59:31.609Z,102936.94
2023-05-25T19:02:00.436Z,102939.31
2023-05-25T19:04:29.346Z,102941.66
2023-05-25T19:06:58.013Z,102943.97
2023-05-25T19:09:26.652Z,102944.63
2023-05-25T19:11:56.630Z,102947.88
2023-05-25T19:14:25.170Z,102949.44
2023-05-25T19:16:53.815Z,102947.50
2023-05-25T19:19:22.385Z,102955.31
2023-05-25T19:21:50.989Z,102954.25
2023-05-25T19:24:19.705Z,102959.19
2023-05-25T19:26:49.830Z,102958.84
2023-05-25T19:29:19.919Z,102966.41
2023-05-25T19:31:48.389Z,102966.94
2023-05-25T19:34:16.995Z,102965.69
2023-05-25T19:36:45.641Z,102961.03
2023-05-25T19:39:14.891Z,102969.56
2023-05-25T19:41:43.407Z,102974.50
2023-05-25T19:44:12.402Z,102983.06
2023-05-25T19:46:42.482Z,102976.72
2023-05-25T19:49:11.003Z,102976.50
2023-05-25T19:51:39.574Z,102990.38
2023-05-25T19:54:08.485Z,102993.63
2023-05-25T19:56:37.011Z,102988.91
2023-05-25T19:59:07.410Z,102990.38
2023-05-25T20:01:36.539Z,102984.88
2023-05-25T20:04:06.474Z,102985.53
2023-05-25T20:06:34.953Z,102987.09
2023-05-25T20:09:03.697Z,102996.59
2023-05-25T20:11:32.161Z,102986.72
2023-05-25T20:14:00.670Z,102996.91
2023-05-25T20:16:29.524Z,102994.03
2023-05-25T20:18:58.430Z,102993.78
2023-05-25T20:21:29.353Z,102997.09
2023-05-25T20:23:59.156Z,102996.84
2023-05-25T20:26:27.730Z,102996.72
2023-05-25T20:28:56.408Z,102993.88
2023-05-25T20:31:26.979Z,103002.47
2023-05-25T20:33:55.521Z,103000.44
2023-05-25T20:36:24.148Z,102994.06
2023-05-25T20:38:54.542Z,103010.50
2023-05-25T20:41:23.076Z,103002.47
2023-05-25T20:43:51.597Z,103002.25
2023-05-25T20:46:20.224Z,102999.41
2023-05-25T20:48:48.686Z,103008.91
2023-05-25T20:51:17.309Z,103004.34
2023-05-25T20:53:45.755Z,103005.88
2023-05-25T20:56:16.208Z,103004.84
2023-05-25T20:58:45.004Z,103015.22
2023-05-25T21:01:14.145Z,103012.44
2023-05-25T21:03:42.828Z,103013.13
2023-05-25T21:06:11.468Z,103003.34
2023-05-25T21:08:39.947Z,103009.25
2023-05-25T21:11:08.813Z,103004.75
2023-05-25T21:13:39.084Z,103008.06
2023-05-25T21:16:08.496Z,103020.16
2023-05-25T21:18:37.032Z,103019.94
2023-05-25T21:21:05.957Z,103018.94
2023-05-25T21:23:34.438Z,103022.31
2023-05-25T21:26:05.730Z,103016.06
2023-05-25T21:28:34.286Z,103019.41
2023-05-25T21:31:04.384Z,103019.25
2023-05-25T21:33:35.938Z,103022.59
2023-05-25T21:36:05.778Z,103018.94
2023-05-25T21:38:34.861Z,103016.22
2023-05-25T21:41:03.382Z,103022.19
2023-05-25T21:43:31.911Z,103024.72
2023-05-25T21:46:00.743Z,103016.72
2023-05-25T21:48:30.682Z,103018.34
2023-05-25T21:50:59.446Z,103019.06
2023-05-25T21:53:28.321Z,103013.66
2023-05-25T21:55:57.079Z,103016.13
2023-05-25T21:58:25.637Z,103018.56
2023-05-25T22:00:54.144Z,103012.31
2023-05-25T22:03:22.748Z,103010.41
2023-05-25T22:05:52.836Z,103006.78
2023-05-25T22:08:21.426Z,103004.88
2023-05-25T22:10:49.964Z,103003.88
2023-05-25T22:13:18.595Z,103008.94
2023-05-25T22:15:47.180Z,103007.03
2023-05-25T22:18:16.536Z,103011.22
2023-05-25T22:20:45.187Z,103015.41
2023-05-25T22:23:15.643Z,103009.91
2023-05-25T22:25:44.321Z,103018.63
2023-05-25T22:28:13.098Z,103021.06
2023-05-25T22:30:42.459Z,103015.59
2023-05-25T22:33:11.235Z,103020.75
2023-05-25T22:35:39.886Z,103010.97
2023-05-25T22:38:08.363Z,103012.50
2023-05-25T22:40:38.530Z,103018.44
2023-05-25T22:43:12.802Z,103017.44
2023-05-25T22:45:42.173Z,103025.22
2023-05-25T22:48:12.381Z,103012.84
2023-05-25T22:50:41.245Z,103022.34
2023-05-25T22:53:09.884Z,103023.91
2023-05-25T22:55:39.737Z,103014.22
2023-05-25T22:58:08.126Z,103022.84
2023-05-25T23:00:36.707Z,103014.84
2023-05-25T23:03:05.314Z,103015.56
2023-05-25T23:05:34.500Z,103017.22
2023-05-25T23:08:03.829Z,103027.50
2023-05-25T23:10:32.323Z,103025.66
2023-05-25T23:13:02.492Z,103028.97
2023-05-25T23:15:31.258Z,103021.81
2023-05-25T23:18:00.017Z,103026.94
2023-05-25T23:20:28.767Z,103023.28
2023-05-25T23:22:57.357Z,103024.94
2023-05-25T23:25:26.280Z,103019.53
2023-05-25T23:27:54.757Z,103014.22
2023-05-25T23:30:24.759Z,103021.06
2023-05-25T23:32:53.196Z,103020.09
2023-05-25T23:35:22.787Z,103025.22
2023-05-25T23:37:52.124Z,103029.47
2023-05-25T23:40:20.895Z,103028.56
2023-05-25T23:42:49.360Z,103025.06
2023-05-25T23:45:17.866Z,103028.53
2023-05-25T23:47:47.899Z,103025.06
2023-05-25T23:50:16.492Z,103030.28
2023-05-25T23:52:45.836Z,103025.94
2023-05-25T23:55:14.875Z,103025.94
2023-05-25T23:57:45.650Z,103028.53
